sensor_id;sensor_type;location;lat;lon;timestamp;P1;P2;P0
46591;PMS6003;32314;48.748;9.656;2023-04-25T00:00:15;6.00;3.67;3.00
46591;PMS6003;32314;48.748;9.656;2023-04-25T00:03:02;3.00;3.00;3.00
46591;PMS6003;32314;48.748;9.656;2023-04-25T00:05:48;1.00;1.00;0.67
46591;PMS6003;32314;48.748;9.656;2023-04-25T00:08:34;1.67;1.67;1.67
46591;PMS6003;32314;48.748;9.656;2023-04-25T00:11:20;0.33;0.33;0.00
46591;PMS6003;32314;48.748;9.656;2023-04-25T00:14:06;1.00;1.00;0.67
46591;PMS6003;32314;48.748;9.656;2023-04-25T00:16:52;6.33;6.33;4.67
46591;PMS6003;32314;48.748;9.656;2023-04-25T00:19:37;2.33;1.00;0.00
46591;PMS6003;32314;48.748;9.656;2023-04-25T00:22:23;3.00;1.00;0.00
46591;PMS6003;32314;48.748;9.656;2023-04-25T00:25:12;0.67;0.67;0.67
46591;PMS6003;32314;48.748;9.656;2023-04-25T00:27:58;1.00;1.00;1.00
46591;PMS6003;32314;48.748;9.656;2023-04-25T00:30:43;2.33;2.33;1.00
46591;PMS6003;32314;48.748;9.656;2023-04-25T00:33:29;3.00;3.00;3.00
46591;PMS6003;32314;48.748;9.656;2023-04-25T00:36:15;3.67;1.67;1.00
46591;PMS6003;32314;48.748;9.656;2023-04-25T00:39:02;3.00;3.00;1.00
46591;PMS6003;32314;48.748;9.656;2023-04-25T00:41:50;1.00;1.00;1.00
46591;PMS6003;32314;48.748;9.656;2023-04-25T00:44:38;1.00;1.00;1.00
46591;PMS6003;32314;48.748;9.656;2023-04-25T00:47:25;1.00;1.00;1.00
46591;PMS6003;32314;48.748;9.656;2023-04-25T00:50:11;2.00;1.00;1.00
46591;PMS6003;32314;48.748;9.656;2023-04-25T00:52:57;1.00;0.00;0.00
46591;PMS6003;32314;48.748;9.656;2023-04-25T00:55:43;3.00;1.00;0.00
46591;PMS6003;32314;48.748;9.656;2023-04-25T00:58:29;3.67;1.00;1.00
46591;PMS6003;32314;48.748;9.656;2023-04-25T01:01:15;3.00;3.00;3.00
46591;PMS6003;32314;48.748;9.656;2023-04-25T01:04:01;2.33;2.33;1.67
46591;PMS6003;32314;48.748;9.656;2023-04-25T01:06:47;1.00;1.00;0.33
46591;PMS6003;32314;48.748;9.656;2023-04-25T01:09:34;7.00;1.00;1.00
46591;PMS6003;32314;48.748;9.656;2023-04-25T01:12:20;3.00;1.00;1.00
46591;PMS6003;32314;48.748;9.656;2023-04-25T01:15:06;3.00;3.00;1.00
46591;PMS6003;32314;48.748;9.656;2023-04-25T01:17:52;4.00;4.00;1.67
46591;PMS6003;32314;48.748;9.656;2023-04-25T01:20:38;1.00;1.00;1.00
46591;PMS6003;32314;48.748;9.656;2023-04-25T01:23:29;0.33;0.33;0.33
46591;PMS6003;32314;48.748;9.656;2023-04-25T01:26:18;1.00;1.00;1.00
46591;PMS6003;32314;48.748;9.656;2023-04-25T01:29:07;2.33;2.33;1.67
46591;PMS6003;32314;48.748;9.656;2023-04-25T01:31:54;2.33;2.33;1.00
46591;PMS6003;32314;48.748;9.656;2023-04-25T01:34:40;5.33;3.00;2.33
46591;PMS6003;32314;48.748;9.656;2023-04-25T01:37:26;3.00;3.00;3.00
46591;PMS6003;32314;48.748;9.656;2023-04-25T01:40:12;3.00;3.00;1.67
46591;PMS6003;32314;48.748;9.656;2023-04-25T01:42:58;4.00;1.00;1.00
46591;PMS6003;32314;48.748;9.656;2023-04-25T01:45:45;4.00;3.00;2.33
46591;PMS6003;32314;48.748;9.656;2023-04-25T01:48:32;2.67;1.00;1.00
46591;PMS6003;32314;48.748;9.656;2023-04-25T01:51:18;0.67;0.67;0.67
46591;PMS6003;32314;48.748;9.656;2023-04-25T01:54:04;1.00;1.00;0.67
46591;PMS6003;32314;48.748;9.656;2023-04-25T01:56:50;1.67;1.00;0.00
46591;PMS6003;32314;48.748;9.656;2023-04-25T01:59:37;3.67;1.00;1.00
46591;PMS6003;32314;48.748;9.656;2023-04-25T02:02:28;5.33;3.00;2.33
46591;PMS6003;32314;48.748;9.656;2023-04-25T02:05:14;3.67;1.00;0.00
46591;PMS6003;32314;48.748;9.656;2023-04-25T02:08:02;1.00;1.00;1.00
46591;PMS6003;32314;48.748;9.656;2023-04-25T02:10:49;2.67;2.67;2.33
46591;PMS6003;32314;48.748;9.656;2023-04-25T02:13:37;0.33;0.33;0.00
46591;PMS6003;32314;48.748;9.656;2023-04-25T02:16:35;0.67;0.67;0.67
46591;PMS6003;32314;48.748;9.656;2023-04-25T02:19:21;4.00;3.00;1.00
46591;PMS6003;32314;48.748;9.656;2023-04-25T02:22:07;2.33;2.33;1.00
46591;PMS6003;32314;48.748;9.656;2023-04-25T02:24:53;5.00;1.00;1.00
46591;PMS6003;32314;48.748;9.656;2023-04-25T02:27:40;3.00;3.00;2.33
46591;PMS6003;32314;48.748;9.656;2023-04-25T02:30:27;3.00;3.00;1.00
46591;PMS6003;32314;48.748;9.656;2023-04-25T02:33:12;3.00;3.00;1.00
46591;PMS6003;32314;48.748;9.656;2023-04-25T02:35:58;3.00;3.00;2.33
46591;PMS6003;32314;48.748;9.656;2023-04-25T02:38:44;1.67;1.67;1.00
46591;PMS6003;32314;48.748;9.656;2023-04-25T02:41:30;3.33;3.00;1.00
46591;PMS6003;32314;48.748;9.656;2023-04-25T02:44:16;4.00;1.00;1.00
46591;PMS6003;32314;48.748;9.656;2023-04-25T02:47:03;6.00;3.67;3.00
46591;PMS6003;32314;48.748;9.656;2023-04-25T02:49:49;1.00;1.00;1.00
46591;PMS6003;32314;48.748;9.656;2023-04-25T02:52:35;6.00;3.67;3.00
46591;PMS6003;32314;48.748;9.656;2023-04-25T02:55:30;1.67;1.67;1.00
46591;PMS6003;32314;48.748;9.656;2023-04-25T02:58:18;3.00;3.00;2.33
46591;PMS6003;32314;48.748;9.656;2023-04-25T03:01:09;1.00;1.00;1.00
46591;PMS6003;32314;48.748;9.656;2023-04-25T03:03:56;5.33;3.00;3.00
46591;PMS6003;32314;48.748;9.656;2023-04-25T03:06:41;1.00;1.00;1.00
46591;PMS6003;32314;48.748;9.656;2023-04-25T03:09:27;3.33;3.33;1.00
46591;PMS6003;32314;48.748;9.656;2023-04-25T03:12:13;3.33;3.00;1.67
46591;PMS6003;32314;48.748;9.656;2023-04-25T03:14:59;5.33;5.33;3.00
46591;PMS6003;32314;48.748;9.656;2023-04-25T03:17:45;3.00;3.00;3.00
46591;PMS6003;32314;48.748;9.656;2023-04-25T03:20:31;3.00;3.00;3.00
46591;PMS6003;32314;48.748;9.656;2023-04-25T03:23:16;6.00;3.00;3.00
46591;PMS6003;32314;48.748;9.656;2023-04-25T03:26:02;4.00;4.00;1.67
46591;PMS6003;32314;48.748;9.656;2023-04-25T03:28:48;4.67;4.00;3.33
46591;PMS6003;32314;48.748;9.656;2023-04-25T03:31:34;3.00;1.00;1.00
46591;PMS6003;32314;48.748;9.656;2023-04-25T03:34:20;1.00;1.00;1.00
46591;PMS6003;32314;48.748;9.656;2023-04-25T03:37:06;3.67;3.67;3.00
46591;PMS6003;32314;48.748;9.656;2023-04-25T03:39:56;7.00;3.00;3.00
46591;PMS6003;32314;48.748;9.656;2023-04-25T03:42:46;3.00;3.00;2.33
46591;PMS6003;32314;48.748;9.656;2023-04-25T03:45:31;3.00;3.00;1.00
46591;PMS6003;32314;48.748;9.656;2023-04-25T03:48:17;1.00;1.00;1.00
46591;PMS6003;32314;48.748;9.656;2023-04-25T03:51:03;4.67;1.00;1.00
46591;PMS6003;32314;48.748;9.656;2023-04-25T03:53:51;3.67;3.67;3.00
46591;PMS6003;32314;48.748;9.656;2023-04-25T03:56:49;9.00;3.33;3.00
46591;PMS6003;32314;48.748;9.656;2023-04-25T03:59:38;6.00;3.00;3.00
46591;PMS6003;32314;48.748;9.656;2023-04-25T04:02:26;4.00;2.33;1.00
46591;PMS6003;32314;48.748;9.656;2023-04-25T04:05:12;1.00;1.00;1.00
46591;PMS6003;32314;48.748;9.656;2023-04-25T04:08:06;3.00;3.00;1.67
46591;PMS6003;32314;48.748;9.656;2023-04-25T04:10:52;4.33;3.00;1.67
46591;PMS6003;32314;48.748;9.656;2023-04-25T04:13:38;1.00;1.00;1.00
46591;PMS6003;32314;48.748;9.656;2023-04-25T04:16:25;5.33;3.00;2.33
46591;PMS6003;32314;48.748;9.656;2023-04-25T04:19:11;3.00;3.00;1.00
46591;PMS6003;32314;48.748;9.656;2023-04-25T04:22:00;3.00;3.00;1.67
46591;PMS6003;32314;48.748;9.656;2023-04-25T04:24:46;3.00;1.67;1.00
46591;PMS6003;32314;48.748;9.656;2023-04-25T04:27:35;3.00;3.00;1.67
46591;PMS6003;32314;48.748;9.656;2023-04-25T04:30:38;4.00;2.33;1.00
46591;PMS6003;32314;48.748;9.656;2023-04-25T04:33:27;2.33;2.33;1.00
46591;PMS6003;32314;48.748;9.656;2023-04-25T04:36:17;1.00;1.00;1.00
46591;PMS6003;32314;48.748;9.656;2023-04-25T04:39:08;6.00;3.00;3.00
46591;PMS6003;32314;48.748;9.656;2023-04-25T04:41:58;4.00;4.00;3.00
46591;PMS6003;32314;48.748;9.656;2023-04-25T04:45:12;3.00;3.00;3.00
46591;PMS6003;32314;48.748;9.656;2023-04-25T04:48:18;1.00;1.00;0.00
46591;PMS6003;32314;48.748;9.656;2023-04-25T04:51:18;1.00;1.00;1.00
46591;PMS6003;32314;48.748;9.656;2023-04-25T04:54:32;3.00;3.00;1.00
46591;PMS6003;32314;48.748;9.656;2023-04-25T04:57:43;4.67;4.67;3.67
46591;PMS6003;32314;48.748;9.656;2023-04-25T05:00:44;10.33;4.00;3.00
46591;PMS6003;32314;48.748;9.656;2023-04-25T05:03:45;1.67;1.67;1.67
46591;PMS6003;32314;48.748;9.656;2023-04-25T05:06:48;1.00;1.00;1.00
46591;PMS6003;32314;48.748;9.656;2023-04-25T05:09:52;1.00;1.00;1.00
46591;PMS6003;32314;48.748;9.656;2023-04-25T05:12:58;3.00;3.00;1.00
46591;PMS6003;32314;48.748;9.656;2023-04-25T05:15:53;3.00;3.00;1.00
46591;PMS6003;32314;48.748;9.656;2023-04-25T05:18:53;3.00;3.00;1.00
46591;PMS6003;32314;48.748;9.656;2023-04-25T05:22:17;9.00;2.33;1.00
46591;PMS6003;32314;48.748;9.656;2023-04-25T05:25:21;1.00;1.00;1.00
46591;PMS6003;32314;48.748;9.656;2023-04-25T05:28:30;3.67;3.67;2.33
46591;PMS6003;32314;48.748;9.656;2023-04-25T05:31:42;2.33;2.33;2.33
46591;PMS6003;32314;48.748;9.656;2023-04-25T05:34:33;3.00;3.00;2.33
46591;PMS6003;32314;48.748;9.656;2023-04-25T05:37:22;3.00;3.00;1.00
46591;PMS6003;32314;48.748;9.656;2023-04-25T05:40:15;0.00;0.00;0.00
46591;PMS6003;32314;48.748;9.656;2023-04-25T05:43:03;3.00;3.00;3.00
46591;PMS6003;32314;48.748;9.656;2023-04-25T05:46:15;6.00;3.00;3.00
46591;PMS6003;32314;48.748;9.656;2023-04-25T05:49:29;3.00;3.00;3.00
46591;PMS6003;32314;48.748;9.656;2023-04-25T05:52:17;3.00;3.00;1.00
46591;PMS6003;32314;48.748;9.656;2023-04-25T05:55:10;3.67;3.67;3.00
46591;PMS6003;32314;48.748;9.656;2023-04-25T05:57:56;5.67;3.00;1.67
46591;PMS6003;32314;48.748;9.656;2023-04-25T06:00:43;3.33;1.00;0.33
46591;PMS6003;32314;48.748;9.656;2023-04-25T06:03:30;5.33;4.00;3.00
46591;PMS6003;32314;48.748;9.656;2023-04-25T06:06:17;5.33;3.00;2.33
46591;PMS6003;32314;48.748;9.656;2023-04-25T06:09:03;3.33;3.33;3.00
46591;PMS6003;32314;48.748;9.656;2023-04-25T06:11:50;6.00;3.00;1.67
46591;PMS6003;32314;48.748;9.656;2023-04-25T06:14:36;3.00;3.00;2.33
46591;PMS6003;32314;48.748;9.656;2023-04-25T06:17:22;3.33;3.33;3.00
46591;PMS6003;32314;48.748;9.656;2023-04-25T06:20:09;4.00;1.00;1.00
46591;PMS6003;32314;48.748;9.656;2023-04-25T06:22:55;3.67;1.00;1.00
46591;PMS6003;32314;48.748;9.656;2023-04-25T06:25:50;6.00;4.00;3.33
46591;PMS6003;32314;48.748;9.656;2023-04-25T06:28:36;1.67;1.67;1.00
46591;PMS6003;32314;48.748;9.656;2023-04-25T06:31:23;2.33;2.33;0.00
46591;PMS6003;32314;48.748;9.656;2023-04-25T06:34:10;3.00;3.00;1.00
46591;PMS6003;32314;48.748;9.656;2023-04-25T06:36:59;2.33;2.33;1.00
46591;PMS6003;32314;48.748;9.656;2023-04-25T06:39:45;3.00;3.00;1.00
46591;PMS6003;32314;48.748;9.656;2023-04-25T06:42:31;1.00;1.00;0.00
46591;PMS6003;32314;48.748;9.656;2023-04-25T06:45:18;3.00;3.00;3.00
46591;PMS6003;32314;48.748;9.656;2023-04-25T06:48:04;1.00;1.00;1.00
46591;PMS6003;32314;48.748;9.656;2023-04-25T06:50:50;1.00;1.00;1.00
46591;PMS6003;32314;48.748;9.656;2023-04-25T06:53:37;2.50;2.50;1.50
46591;PMS6003;32314;48.748;9.656;2023-04-25T06:56:29;4.00;2.50;1.00
46591;PMS6003;32314;48.748;9.656;2023-04-25T06:59:22;3.00;1.00;1.00
46591;PMS6003;32314;48.748;9.656;2023-04-25T07:02:09;1.00;1.00;1.00
46591;PMS6003;32314;48.748;9.656;2023-04-25T07:04:55;0.75;0.75;0.75
46591;PMS6003;32314;48.748;9.656;2023-04-25T07:07:45;2.50;2.50;2.00
46591;PMS6003;32314;48.748;9.656;2023-04-25T07:10:31;2.00;2.00;1.00
46591;PMS6003;32314;48.748;9.656;2023-04-25T07:13:17;0.75;0.75;0.00
46591;PMS6003;32314;48.748;9.656;2023-04-25T07:16:04;3.00;1.50;1.00
46591;PMS6003;32314;48.748;9.656;2023-04-25T07:18:52;1.00;1.00;1.00
46591;PMS6003;32314;48.748;9.656;2023-04-25T07:21:38;0.00;0.00;0.00
46591;PMS6003;32314;48.748;9.656;2023-04-25T07:24:25;3.00;3.00;1.00
46591;PMS6003;32314;48.748;9.656;2023-04-25T07:27:13;0.75;0.75;0.00
46591;PMS6003;32314;48.748;9.656;2023-04-25T07:30:21;1.00;1.00;1.00
46591;PMS6003;32314;48.748;9.656;2023-04-25T07:33:06;0.50;0.50;0.00
46591;PMS6003;32314;48.748;9.656;2023-04-25T07:35:53;0.00;0.00;0.00
46591;PMS6003;32314;48.748;9.656;2023-04-25T07:38:39;3.00;1.00;0.25
46591;PMS6003;32314;48.748;9.656;2023-04-25T07:41:25;4.50;4.00;3.50
46591;PMS6003;32314;48.748;9.656;2023-04-25T07:44:11;4.25;4.25;4.00
46591;PMS6003;32314;48.748;9.656;2023-04-25T07:46:57;3.75;3.00;3.00
46591;PMS6003;32314;48.748;9.656;2023-04-25T07:49:43;1.00;1.00;1.00
46591;PMS6003;32314;48.748;9.656;2023-04-25T07:52:29;5.00;4.00;3.75
46591;PMS6003;32314;48.748;9.656;2023-04-25T07:55:22;10.25;5.00;4.00
46591;PMS6003;32314;48.748;9.656;2023-04-25T07:58:23;2.25;1.00;1.00
46591;PMS6003;32314;48.748;9.656;2023-04-25T08:01:16;3.25;1.00;1.00
46591;PMS6003;32314;48.748;9.656;2023-04-25T08:04:02;3.50;3.50;3.00
46591;PMS6003;32314;48.748;9.656;2023-04-25T08:07:07;3.50;3.00;3.00
46591;PMS6003;32314;48.748;9.656;2023-04-25T08:10:07;5.50;3.75;3.00
46591;PMS6003;32314;48.748;9.656;2023-04-25T08:12:54;3.00;3.00;2.00
46591;PMS6003;32314;48.748;9.656;2023-04-25T08:15:42;1.50;1.50;1.00
46591;PMS6003;32314;48.748;9.656;2023-04-25T08:18:28;1.00;1.00;1.00
46591;PMS6003;32314;48.748;9.656;2023-04-25T08:21:14;2.00;2.00;1.00
46591;PMS6003;32314;48.748;9.656;2023-04-25T08:24:01;3.25;3.25;3.00
46591;PMS6003;32314;48.748;9.656;2023-04-25T08:26:51;3.00;3.00;1.50
46591;PMS6003;32314;48.748;9.656;2023-04-25T08:29:39;3.75;3.00;1.50
46591;PMS6003;32314;48.748;9.656;2023-04-25T08:32:25;1.50;1.50;1.00
46591;PMS6003;32314;48.748;9.656;2023-04-25T08:35:29;1.00;1.00;1.00
46591;PMS6003;32314;48.748;9.656;2023-04-25T08:38:15;1.50;0.75;0.50
46591;PMS6003;32314;48.748;9.656;2023-04-25T08:41:03;2.50;2.50;1.00
46591;PMS6003;32314;48.748;9.656;2023-04-25T08:43:51;4.00;2.50;1.00
46591;PMS6003;32314;48.748;9.656;2023-04-25T08:46:39;3.00;3.00;1.00
46591;PMS6003;32314;48.748;9.656;2023-04-25T08:49:36;5.25;3.00;1.50
46591;PMS6003;32314;48.748;9.656;2023-04-25T08:52:24;2.50;2.50;1.00
46591;PMS6003;32314;48.748;9.656;2023-04-25T08:55:13;0.75;0.75;0.25
46591;PMS6003;32314;48.748;9.656;2023-04-25T08:58:00;2.50;2.00;1.00
46591;PMS6003;32314;48.748;9.656;2023-04-25T09:00:49;3.75;3.75;2.50
46591;PMS6003;32314;48.748;9.656;2023-04-25T09:03:36;1.00;1.00;0.75
46591;PMS6003;32314;48.748;9.656;2023-04-25T09:06:22;4.33;1.00;1.00
46591;PMS6003;32314;48.748;9.656;2023-04-25T09:09:10;7.00;3.00;3.00
46591;PMS6003;32314;48.748;9.656;2023-04-25T09:11:57;5.00;5.00;4.67
46591;PMS6003;32314;48.748;9.656;2023-04-25T09:14:50;6.67;6.67;5.33
46591;PMS6003;32314;48.748;9.656;2023-04-25T09:18:01;7.00;3.00;3.00
46591;PMS6003;32314;48.748;9.656;2023-04-25T09:20:54;3.67;3.67;2.33
46591;PMS6003;32314;48.748;9.656;2023-04-25T09:23:43;7.00;4.67;4.67
46591;PMS6003;32314;48.748;9.656;2023-04-25T09:26:31;4.00;4.00;3.67
46591;PMS6003;32314;48.748;9.656;2023-04-25T09:29:19;11.33;9.67;7.00
46591;PMS6003;32314;48.748;9.656;2023-04-25T09:32:22;9.00;9.00;7.00
46591;PMS6003;32314;48.748;9.656;2023-04-25T09:35:11;6.67;6.67;6.00
46591;PMS6003;32314;48.748;9.656;2023-04-25T09:38:11;6.33;3.67;3.33
46591;PMS6003;32314;48.748;9.656;2023-04-25T09:41:24;12.67;12.67;10.00
46591;PMS6003;32314;48.748;9.656;2023-04-25T09:44:12;3.00;3.00;3.00
46591;PMS6003;32314;48.748;9.656;2023-04-25T09:47:00;6.33;4.00;3.00
46591;PMS6003;32314;48.748;9.656;2023-04-25T09:49:48;4.00;4.00;3.00
46591;PMS6003;32314;48.748;9.656;2023-04-25T09:52:36;3.33;3.00;3.00
46591;PMS6003;32314;48.748;9.656;2023-04-25T09:55:32;3.33;3.33;3.00
46591;PMS6003;32314;48.748;9.656;2023-04-25T09:58:20;4.67;1.67;1.67
46591;PMS6003;32314;48.748;9.656;2023-04-25T10:01:07;3.33;3.33;3.00
46591;PMS6003;32314;48.748;9.656;2023-04-25T10:04:03;2.33;2.33;1.67
46591;PMS6003;32314;48.748;9.656;2023-04-25T10:07:06;1.00;1.00;0.67
46591;PMS6003;32314;48.748;9.656;2023-04-25T10:09:55;3.67;1.00;1.00
46591;PMS6003;32314;48.748;9.656;2023-04-25T10:12:48;3.00;3.00;3.00
46591;PMS6003;32314;48.748;9.656;2023-04-25T10:15:35;6.00;6.00;4.67
46591;PMS6003;32314;48.748;9.656;2023-04-25T10:18:28;4.00;4.00;1.67
46591;PMS6003;32314;48.748;9.656;2023-04-25T10:21:14;1.00;1.00;1.00
46591;PMS6003;32314;48.748;9.656;2023-04-25T10:24:01;1.00;1.00;1.00
46591;PMS6003;32314;48.748;9.656;2023-04-25T10:26:48;3.00;3.00;1.67
46591;PMS6003;32314;48.748;9.656;2023-04-25T10:29:34;4.00;4.00;3.00
46591;PMS6003;32314;48.748;9.656;2023-04-25T10:32:20;3.00;3.00;1.67
46591;PMS6003;32314;48.748;9.656;2023-04-25T10:35:25;3.67;3.00;3.00
46591;PMS6003;32314;48.748;9.656;2023-04-25T10:38:15;10.00;7.00;6.33
46591;PMS6003;32314;48.748;9.656;2023-04-25T10:41:08;9.33;9.00;7.00
46591;PMS6003;32314;48.748;9.656;2023-04-25T10:44:01;8.33;6.00;4.00
46591;PMS6003;32314;48.748;9.656;2023-04-25T10:46:50;11.33;11.33;9.00
46591;PMS6003;32314;48.748;9.656;2023-04-25T10:49:37;5.33;5.33;3.67
46591;PMS6003;32314;48.748;9.656;2023-04-25T10:52:25;4.00;4.00;1.00
46591;PMS6003;32314;48.748;9.656;2023-04-25T10:55:13;3.33;3.33;1.67
46591;PMS6003;32314;48.748;9.656;2023-04-25T10:57:59;3.00;1.00;0.00
46591;PMS6003;32314;48.748;9.656;2023-04-25T11:00:46;4.00;4.00;3.00
46591;PMS6003;32314;48.748;9.656;2023-04-25T11:03:41;4.00;4.00;3.00
46591;PMS6003;32314;48.748;9.656;2023-04-25T11:06:29;3.67;1.00;1.00
46591;PMS6003;32314;48.748;9.656;2023-04-25T11:09:23;1.00;1.00;1.00
46591;PMS6003;32314;48.748;9.656;2023-04-25T11:12:10;1.00;1.00;1.00
46591;PMS6003;32314;48.748;9.656;2023-04-25T11:15:06;3.00;3.00;2.33
46591;PMS6003;32314;48.748;9.656;2023-04-25T11:17:53;3.00;3.00;1.00
46591;PMS6003;32314;48.748;9.656;2023-04-25T11:20:41;2.33;1.00;1.00
46591;PMS6003;32314;48.748;9.656;2023-04-25T11:23:29;1.00;1.00;0.00
46591;PMS6003;32314;48.748;9.656;2023-04-25T11:26:15;0.00;0.00;0.00
46591;PMS6003;32314;48.748;9.656;2023-04-25T11:29:02;4.00;1.00;0.00
46591;PMS6003;32314;48.748;9.656;2023-04-25T11:31:51;3.00;0.00;0.00
46591;PMS6003;32314;48.748;9.656;2023-04-25T11:34:44;4.00;1.00;1.00
46591;PMS6003;32314;48.748;9.656;2023-04-25T11:37:46;1.00;1.00;0.00
46591;PMS6003;32314;48.748;9.656;2023-04-25T11:40:35;0.00;0.00;0.00
46591;PMS6003;32314;48.748;9.656;2023-04-25T11:43:21;1.00;0.00;0.00
46591;PMS6003;32314;48.748;9.656;2023-04-25T11:46:08;0.33;0.33;0.00
46591;PMS6003;32314;48.748;9.656;2023-04-25T11:48:53;1.00;1.00;1.00
46591;PMS6003;32314;48.748;9.656;2023-04-25T11:51:41;1.00;1.00;1.00
46591;PMS6003;32314;48.748;9.656;2023-04-25T11:54:34;1.00;1.00;0.33
46591;PMS6003;32314;48.748;9.656;2023-04-25T11:57:21;1.00;1.00;1.00
46591;PMS6003;32314;48.748;9.656;2023-04-25T12:02:57;3.00;0.33;0.33
46591;PMS6003;32314;48.748;9.656;2023-04-25T12:05:44;0.33;0.33;0.33
46591;PMS6003;32314;48.748;9.656;2023-04-25T12:08:30;1.00;1.00;1.00
46591;PMS6003;32314;48.748;9.656;2023-04-25T12:11:22;1.00;1.00;1.00
46591;PMS6003;32314;48.748;9.656;2023-04-25T12:14:08;1.00;1.00;1.00
46591;PMS6003;32314;48.748;9.656;2023-04-25T12:16:58;0.00;0.00;0.00
46591;PMS6003;32314;48.748;9.656;2023-04-25T12:19:46;1.67;1.00;1.00
46591;PMS6003;32314;48.748;9.656;2023-04-25T12:22:33;3.00;3.00;1.00
46591;PMS6003;32314;48.748;9.656;2023-04-25T12:28:25;0.00;0.00;0.00
46591;PMS6003;32314;48.748;9.656;2023-04-25T12:31:12;0.00;0.00;0.00
46591;PMS6003;32314;48.748;9.656;2023-04-25T12:34:00;0.00;0.00;0.00
46591;PMS6003;32314;48.748;9.656;2023-04-25T12:36:47;0.00;0.00;0.00
46591;PMS6003;32314;48.748;9.656;2023-04-25T12:39:34;0.00;0.00;0.00
46591;PMS6003;32314;48.748;9.656;2023-04-25T12:42:20;0.00;0.00;0.00
46591;PMS6003;32314;48.748;9.656;2023-04-25T12:45:06;0.00;0.00;0.00
46591;PMS6003;32314;48.748;9.656;2023-04-25T12:47:52;3.00;3.00;1.00
46591;PMS6003;32314;48.748;9.656;2023-04-25T12:50:38;0.75;0.75;0.50
46591;PMS6003;32314;48.748;9.656;2023-04-25T12:53:24;0.00;0.00;0.00
46591;PMS6003;32314;48.748;9.656;2023-04-25T12:56:10;1.00;1.00;1.00
46591;PMS6003;32314;48.748;9.656;2023-04-25T12:58:59;0.00;0.00;0.00
46591;PMS6003;32314;48.748;9.656;2023-04-25T13:01:50;0.75;0.75;0.00
46591;PMS6003;32314;48.748;9.656;2023-04-25T13:04:43;0.25;0.25;0.25
46591;PMS6003;32314;48.748;9.656;2023-04-25T13:07:31;0.50;0.50;0.00
46591;PMS6003;32314;48.748;9.656;2023-04-25T13:10:19;0.00;0.00;0.00
46591;PMS6003;32314;48.748;9.656;2023-04-25T13:13:06;1.00;1.00;0.00
46591;PMS6003;32314;48.748;9.656;2023-04-25T13:16:01;4.50;1.50;1.00
46591;PMS6003;32314;48.748;9.656;2023-04-25T13:18:47;2.00;2.00;1.00
46591;PMS6003;32314;48.748;9.656;2023-04-25T13:21:33;0.75;0.75;0.50
46591;PMS6003;32314;48.748;9.656;2023-04-25T13:24:22;1.00;1.00;0.25
46591;PMS6003;32314;48.748;9.656;2023-04-25T13:27:10;0.00;0.00;0.00
46591;PMS6003;32314;48.748;9.656;2023-04-25T13:29:56;0.50;0.50;0.00
46591;PMS6003;32314;48.748;9.656;2023-04-25T13:32:42;1.00;1.00;1.00
46591;PMS6003;32314;48.748;9.656;2023-04-25T13:35:27;0.50;0.50;0.00
46591;PMS6003;32314;48.748;9.656;2023-04-25T13:38:13;3.00;3.00;1.00
46591;PMS6003;32314;48.748;9.656;2023-04-25T13:40:59;0.00;0.00;0.00
46591;PMS6003;32314;48.748;9.656;2023-04-25T13:43:46;0.00;0.00;0.00
46591;PMS6003;32314;48.748;9.656;2023-04-25T13:46:32;1.00;1.00;0.50
46591;PMS6003;32314;48.748;9.656;2023-04-25T13:49:19;3.00;3.00;1.00
46591;PMS6003;32314;48.748;9.656;2023-04-25T13:52:04;1.50;1.50;1.00
46591;PMS6003;32314;48.748;9.656;2023-04-25T13:54:50;6.00;6.00;5.00
46591;PMS6003;32314;48.748;9.656;2023-04-25T13:57:36;4.75;4.25;3.00
46591;PMS6003;32314;48.748;9.656;2023-04-25T14:00:22;7.00;7.00;4.75
46591;PMS6003;32314;48.748;9.656;2023-04-25T14:03:08;3.25;3.25;3.00
46591;PMS6003;32314;48.748;9.656;2023-04-25T14:05:54;5.00;5.00;4.50
46591;PMS6003;32314;48.748;9.656;2023-04-25T14:08:40;1.00;1.00;1.00
46591;PMS6003;32314;48.748;9.656;2023-04-25T14:11:26;1.00;1.00;1.00
46591;PMS6003;32314;48.748;9.656;2023-04-25T14:14:12;1.00;1.00;0.75
46591;PMS6003;32314;48.748;9.656;2023-04-25T14:17:01;6.50;3.50;2.00
46591;PMS6003;32314;48.748;9.656;2023-04-25T14:19:46;12.50;9.00;6.75
46591;PMS6003;32314;48.748;9.656;2023-04-25T14:22:33;8.00;8.00;6.25
46591;PMS6003;32314;48.748;9.656;2023-04-25T14:25:20;5.25;5.25;4.00
46591;PMS6003;32314;48.748;9.656;2023-04-25T14:28:06;22.00;22.00;16.00
46591;PMS6003;32314;48.748;9.656;2023-04-25T14:30:52;8.50;8.50;7.25
46591;PMS6003;32314;48.748;9.656;2023-04-25T14:33:38;7.25;7.25;5.25
46591;PMS6003;32314;48.748;9.656;2023-04-25T14:36:30;10.00;10.00;8.50
46591;PMS6003;32314;48.748;9.656;2023-04-25T14:39:17;8.00;8.00;6.50
46591;PMS6003;32314;48.748;9.656;2023-04-25T14:42:03;10.50;8.75;7.00
46591;PMS6003;32314;48.748;9.656;2023-04-25T14:44:49;11.00;8.25;7.50
46591;PMS6003;32314;48.748;9.656;2023-04-25T14:47:36;3.00;3.00;2.50
46591;PMS6003;32314;48.748;9.656;2023-04-25T14:50:22;6.00;5.00;3.75
46591;PMS6003;32314;48.748;9.656;2023-04-25T14:53:08;6.00;3.75;3.00
46591;PMS6003;32314;48.748;9.656;2023-04-25T14:55:54;4.00;4.00;3.50
46591;PMS6003;32314;48.748;9.656;2023-04-25T14:58:40;5.00;5.00;2.50
46591;PMS6003;32314;48.748;9.656;2023-04-25T15:01:26;11.33;11.33;8.00
46591;PMS6003;32314;48.748;9.656;2023-04-25T15:04:12;12.00;12.00;10.00
46591;PMS6003;32314;48.748;9.656;2023-04-25T15:06:59;5.33;5.33;4.33
46591;PMS6003;32314;48.748;9.656;2023-04-25T15:09:45;11.67;11.67;10.00
46591;PMS6003;32314;48.748;9.656;2023-04-25T15:12:33;16.50;12.25;8.25
46591;PMS6003;32314;48.748;9.656;2023-04-25T15:15:19;10.00;10.00;8.50
46591;PMS6003;32314;48.748;9.656;2023-04-25T15:18:05;14.50;13.75;10.00
46591;PMS6003;32314;48.748;9.656;2023-04-25T15:20:51;13.75;12.00;8.00
46591;PMS6003;32314;48.748;9.656;2023-04-25T15:23:37;13.25;13.25;10.00
46591;PMS6003;32314;48.748;9.656;2023-04-25T15:26:23;35.33;32.67;23.00
46591;PMS6003;32314;48.748;9.656;2023-04-25T15:29:09;10.25;10.25;6.50
46591;PMS6003;32314;48.748;9.656;2023-04-25T15:31:55;11.50;11.50;7.25
46591;PMS6003;32314;48.748;9.656;2023-04-25T15:34:41;14.00;13.50;9.50
46591;PMS6003;32314;48.748;9.656;2023-04-25T15:37:27;12.75;11.50;8.75
46591;PMS6003;32314;48.748;9.656;2023-04-25T15:40:14;13.75;13.75;11.50
46591;PMS6003;32314;48.748;9.656;2023-04-25T15:43:00;13.25;12.00;10.25
46591;PMS6003;32314;48.748;9.656;2023-04-25T15:45:46;10.00;10.00;7.25
46591;PMS6003;32314;48.748;9.656;2023-04-25T15:48:32;15.00;14.75;11.75
46591;PMS6003;32314;48.748;9.656;2023-04-25T15:51:18;14.25;14.25;11.50
46591;PMS6003;32314;48.748;9.656;2023-04-25T15:54:04;10.25;10.25;8.25
46591;PMS6003;32314;48.748;9.656;2023-04-25T15:56:50;10.50;10.50;8.00
46591;PMS6003;32314;48.748;9.656;2023-04-25T15:59:35;15.25;12.25;9.00
46591;PMS6003;32314;48.748;9.656;2023-04-25T16:02:21;12.00;12.00;8.75
46591;PMS6003;32314;48.748;9.656;2023-04-25T16:05:07;14.00;13.50;10.75
46591;PMS6003;32314;48.748;9.656;2023-04-25T16:07:53;14.00;14.00;11.00
46591;PMS6003;32314;48.748;9.656;2023-04-25T16:10:40;11.25;11.25;10.00
46591;PMS6003;32314;48.748;9.656;2023-04-25T16:13:26;12.75;11.00;7.50
46591;PMS6003;32314;48.748;9.656;2023-04-25T16:16:14;13.50;10.50;6.25
46591;PMS6003;32314;48.748;9.656;2023-04-25T16:19:00;14.75;11.75;8.00
46591;PMS6003;32314;48.748;9.656;2023-04-25T16:21:46;11.00;11.00;7.00
46591;PMS6003;32314;48.748;9.656;2023-04-25T16:24:32;14.25;14.25;10.25
46591;PMS6003;32314;48.748;9.656;2023-04-25T16:27:18;17.50;17.50;14.50
46591;PMS6003;32314;48.748;9.656;2023-04-25T16:30:04;11.00;11.00;8.00